Pai Eterno — CUDG7 — position and weather

sailwx.info

Track history (hours):
 
Tides and Currents Weather Stations Pressure Air Temp Water Temp Dewpoint Dewpoint Depression Visibility Wind Speed Wind Dir Waves Ship Positions

Pai Eterno

Last reported at 2018-Aug-17 11:30 UTC. Time now 2018-Aug-17 11:41 UTC.
Position N 41°11' W 008°42'.

Length 21 m.

Type: Fishing. MMSI: 204258000.

Date/timePositionNaut miles runAvg speedWind from/ knotsBaromVisibWave heightAir tempDewpointWater temp
2018-Aug-17 11:30N 41°11' W 008°42'0 0.0
2018-Aug-17 11:00N 41°11' W 008°42'0 0.0
2018-Aug-17 10:30N 41°11' W 008°42'0 0.0
2018-Aug-17 10:01N 41°11' W 008°42'0 0.0
2018-Aug-17 09:30N 41°11' W 008°42'1 1.2
2018-Aug-17 09:00N 41°10' W 008°42'3 0.5
2018-Aug-17 02:33N 41°13' W 008°45'1 8.5
2018-Aug-17 02:29N 41°13' W 008°44'2 5.0
2018-Aug-17 02:00N 41°11' W 008°42'0 0.0
2018-Aug-17 01:30N 41°11' W 008°42'0 0.0
2018-Aug-17 01:00N 41°11' W 008°42'0 0.0
2018-Aug-17 00:30N 41°11' W 008°42'0 0.0
2018-Aug-17 00:00N 41°11' W 008°42'0 0.0
2018-Aug-16 23:30N 41°11' W 008°42'0 0.0
2018-Aug-16 23:00N 41°11' W 008°42'0 0.0
2018-Aug-16 22:30N 41°11' W 008°42'0 0.0
2018-Aug-16 22:00N 41°11' W 008°42'0 0.0
2018-Aug-16 10:43N 41°11' W 008°42'0 0.0
2018-Aug-16 10:31N 41°11' W 008°42'0 0.0
2018-Aug-16 10:01N 41°11' W 008°42'0 0.0
2018-Aug-16 09:31N 41°11' W 008°42'0 0.2
2018-Aug-16 09:01N 41°11' W 008°42'0 0.2
2018-Aug-16 08:30N 41°11' W 008°42'0 0.2
2018-Aug-16 07:44N 41°11' W 008°42'0 0.0
2018-Aug-16 07:31N 41°11' W 008°42'0 0.0
2018-Aug-16 07:00N 41°11' W 008°42'0 0.0
2018-Aug-16 06:31N 41°11' W 008°42'0 0.0
2018-Aug-16 06:01N 41°11' W 008°42'0 0.0
2018-Aug-16 05:31N 41°11' W 008°42'2 3.7
2018-Aug-16 05:00N 41°10' W 008°44'2 1.9
2018-Aug-16 04:09N 41°10' W 008°46'0 0.3
2018-Aug-16 04:00N 41°10' W 008°46'0 0.2
2018-Aug-16 03:30N 41°10' W 008°47'0 0.1
2018-Aug-16 03:01N 41°10' W 008°47'1 1.5
2018-Aug-16 02:30N 41°09' W 008°47'3 0.7
2018-Aug-15 22:12N 41°09' W 008°43'210.0
2018-Aug-15 22:01N 41°10' W 008°42'1 1.1
2018-Aug-15 21:31N 41°11' W 008°42'0 0.0
2018-Aug-15 21:00N 41°11' W 008°42'0 0.0
2018-Aug-14 08:31N 41°11' W 008°42'0 0.0
2018-Aug-14 08:30N 41°11' W 008°42'0 0.0
2018-Aug-14 08:00N 41°11' W 008°42'0 0.0
2018-Aug-14 07:30N 41°11' W 008°42'1 2.4
2018-Aug-14 07:00N 41°11' W 008°44'3 0.3
2018-Aug-13 22:32N 41°13' W 008°45'0 8.6
2018-Aug-13 22:30N 41°13' W 008°45'3 5.4
2018-Aug-13 22:00N 41°11' W 008°42'0 0.0
2018-Aug-13 21:31N 41°11' W 008°42'0 0.0
2018-Aug-13 07:56N 41°11' W 008°42'0 0.0
2018-Aug-13 07:30N 41°11' W 008°42'0 0.0
2018-Aug-13 07:00N 41°11' W 008°42'0 0.0
2018-Aug-13 06:30N 41°11' W 008°42'1 2.1
2018-Aug-13 06:00N 41°11' W 008°43'2 0.2
2018-Aug-12 22:51N 41°13' W 008°44'2 6.9
2018-Aug-12 22:30N 41°11' W 008°42'  
2018-Aug-10 09:13N 41°11' W 008°42'0 0.0
2018-Aug-10 09:00N 41°11' W 008°42'0 0.0
2018-Aug-10 08:31N 41°11' W 008°42'0 0.0
2018-Aug-10 08:01N 41°11' W 008°42'2 4.4
2018-Aug-10 07:30N 41°13' W 008°44'0 0.0
2018-Aug-10 02:05N 41°13' W 008°44'1 8.6
2018-Aug-10 02:01N 41°12' W 008°44'2 3.8
2018-Aug-10 01:30N 41°11' W 008°42'0 0.0
2018-Aug-10 01:00N 41°11' W 008°42'0 0.0
2018-Aug-10 00:30N 41°11' W 008°42'0 0.0
2018-Aug-10 00:01N 41°11' W 008°42'0 0.0
2018-Aug-09 23:30N 41°11' W 008°42'0 0.0
2018-Aug-09 23:01N 41°11' W 008°42'0 0.0
2018-Aug-09 22:30N 41°11' W 008°42'0 0.0
2018-Aug-09 22:01N 41°11' W 008°42'0 0.0
2018-Aug-09 07:20N 41°11' W 008°42'1 3.0
2018-Aug-09 07:01N 41°10' W 008°42'4 2.2
2018-Aug-09 05:00N 41°06' W 008°42'510.3
2018-Aug-09 04:30N 41°11' W 008°42'0 0.9
2018-Aug-09 04:01N 41°11' W 008°42'0 0.0
2018-Aug-09 03:30N 41°11' W 008°42'0 0.0
2018-Aug-09 03:01N 41°11' W 008°42'0 0.0
2018-Aug-09 02:31N 41°11' W 008°42'0 0.0
2018-Aug-09 02:01N 41°11' W 008°42'0 0.0
2018-Aug-09 01:31N 41°11' W 008°42'0 0.0
2018-Aug-09 01:01N 41°11' W 008°42'4 7.8
2018-Aug-09 00:29N 41°08' W 008°46'3 1.3
2018-Aug-08 22:02N 41°11' W 008°45'010.5
2018-Aug-08 22:00N 41°11' W 008°45'2 0.3
2018-Aug-08 14:05N 41°11' W 008°42'0 0.0
2018-Aug-08 14:00N 41°11' W 008°42'0 0.0
2018-Aug-08 13:30N 41°11' W 008°42'0 0.1
2018-Aug-08 13:01N 41°11' W 008°42'0 0.0
2018-Aug-08 12:30N 41°11' W 008°42'0 0.0
2018-Aug-08 12:00N 41°11' W 008°42'0 0.0
2018-Aug-08 11:30N 41°11' W 008°42'0 0.0
2018-Aug-08 11:00N 41°11' W 008°42'0 0.0
2018-Aug-08 10:30N 41°11' W 008°42'0 0.0
2018-Aug-08 10:00N 41°11' W 008°42'1 1.3
2018-Aug-08 09:31N 41°10' W 008°42'6 1.3
2018-Aug-08 05:09N 41°05' W 008°43'310.3
2018-Aug-08 04:50N 41°08' W 008°42'3 8.9
2018-Aug-08 04:31N 41°11' W 008°42'0 0.0
2018-Aug-08 04:00N 41°11' W 008°42'0 0.0
2018-Aug-08 03:30N 41°11' W 008°42'0 0.0
2018-Aug-08 03:00N 41°11' W 008°42'0 0.0
2018-Aug-08 02:31N 41°11' W 008°42'0 0.0
2018-Aug-08 02:00N 41°11' W 008°42'0 0.0
2018-Aug-08 01:30N 41°11' W 008°42'0 0.0
2018-Aug-08 01:01N 41°11' W 008°42'0 0.0
2018-Aug-08 00:31N 41°11' W 008°42'0 0.0
2018-Aug-08 00:01N 41°11' W 008°42'0 0.0
2018-Aug-07 23:30N 41°11' W 008°42'0 0.0
2018-Aug-07 23:01N 41°11' W 008°42'0 0.0
2018-Aug-07 22:30N 41°11' W 008°42'0 0.0
2018-Aug-07 22:00N 41°11' W 008°42'  
Track history (hours):
 
Tides and Currents Weather Stations Pressure Air Temp Water Temp Dewpoint Dewpoint Depression Visibility Wind Speed Wind Dir Waves Ship Positions

Pai Eterno

Last reported at 2018-Aug-17 11:30 UTC. Time now 2018-Aug-17 11:41 UTC.
Position N 41°11' W 008°42'.

Length 21 m.

Type: Fishing. MMSI: 204258000.

Date/timePositionNaut miles runAvg speedWind from/ knotsBaromVisibWave heightAir tempDewpointWater temp
2018-Aug-17 11:30N 41°11' W 008°42'0 0.0
2018-Aug-17 11:00N 41°11' W 008°42'0 0.0
2018-Aug-17 10:30N 41°11' W 008°42'0 0.0
2018-Aug-17 10:01N 41°11' W 008°42'0 0.0
2018-Aug-17 09:30N 41°11' W 008°42'1 1.2
2018-Aug-17 09:00N 41°10' W 008°42'3 0.5
2018-Aug-17 02:33N 41°13' W 008°45'1 8.5
2018-Aug-17 02:29N 41°13' W 008°44'2 5.0
2018-Aug-17 02:00N 41°11' W 008°42'0 0.0
2018-Aug-17 01:30N 41°11' W 008°42'0 0.0
2018-Aug-17 01:00N 41°11' W 008°42'0 0.0
2018-Aug-17 00:30N 41°11' W 008°42'0 0.0
2018-Aug-17 00:00N 41°11' W 008°42'0 0.0
2018-Aug-16 23:30N 41°11' W 008°42'0 0.0
2018-Aug-16 23:00N 41°11' W 008°42'0 0.0
2018-Aug-16 22:30N 41°11' W 008°42'0 0.0
2018-Aug-16 22:00N 41°11' W 008°42'0 0.0
2018-Aug-16 10:43N 41°11' W 008°42'0 0.0
2018-Aug-16 10:31N 41°11' W 008°42'0 0.0
2018-Aug-16 10:01N 41°11' W 008°42'0 0.0
2018-Aug-16 09:31N 41°11' W 008°42'0 0.2
2018-Aug-16 09:01N 41°11' W 008°42'0 0.2
2018-Aug-16 08:30N 41°11' W 008°42'0 0.2
2018-Aug-16 07:44N 41°11' W 008°42'0 0.0
2018-Aug-16 07:31N 41°11' W 008°42'0 0.0
2018-Aug-16 07:00N 41°11' W 008°42'0 0.0
2018-Aug-16 06:31N 41°11' W 008°42'0 0.0
2018-Aug-16 06:01N 41°11' W 008°42'0 0.0
2018-Aug-16 05:31N 41°11' W 008°42'2 3.7
2018-Aug-16 05:00N 41°10' W 008°44'2 1.9
2018-Aug-16 04:09N 41°10' W 008°46'0 0.3
2018-Aug-16 04:00N 41°10' W 008°46'0 0.2
2018-Aug-16 03:30N 41°10' W 008°47'0 0.1
2018-Aug-16 03:01N 41°10' W 008°47'1 1.5
2018-Aug-16 02:30N 41°09' W 008°47'3 0.7
2018-Aug-15 22:12N 41°09' W 008°43'210.0
2018-Aug-15 22:01N 41°10' W 008°42'1 1.1
2018-Aug-15 21:31N 41°11' W 008°42'0 0.0
2018-Aug-15 21:00N 41°11' W 008°42'0 0.0
2018-Aug-14 08:31N 41°11' W 008°42'0 0.0
2018-Aug-14 08:30N 41°11' W 008°42'0 0.0
2018-Aug-14 08:00N 41°11' W 008°42'0 0.0
2018-Aug-14 07:30N 41°11' W 008°42'1 2.4
2018-Aug-14 07:00N 41°11' W 008°44'3 0.3
2018-Aug-13 22:32N 41°13' W 008°45'0 8.6
2018-Aug-13 22:30N 41°13' W 008°45'3 5.4
2018-Aug-13 22:00N 41°11' W 008°42'0 0.0
2018-Aug-13 21:31N 41°11' W 008°42'0 0.0
2018-Aug-13 07:56N 41°11' W 008°42'0 0.0
2018-Aug-13 07:30N 41°11' W 008°42'0 0.0
2018-Aug-13 07:00N 41°11' W 008°42'0 0.0
2018-Aug-13 06:30N 41°11' W 008°42'1 2.1
2018-Aug-13 06:00N 41°11' W 008°43'2 0.2
2018-Aug-12 22:51N 41°13' W 008°44'2 6.9
2018-Aug-12 22:30N 41°11' W 008°42'  
2018-Aug-10 09:13N 41°11' W 008°42'0 0.0
2018-Aug-10 09:00N 41°11' W 008°42'0 0.0
2018-Aug-10 08:31N 41°11' W 008°42'0 0.0
2018-Aug-10 08:01N 41°11' W 008°42'2 4.4
2018-Aug-10 07:30N 41°13' W 008°44'0 0.0
2018-Aug-10 02:05N 41°13' W 008°44'1 8.6
2018-Aug-10 02:01N 41°12' W 008°44'2 3.8
2018-Aug-10 01:30N 41°11' W 008°42'0 0.0
2018-Aug-10 01:00N 41°11' W 008°42'0 0.0
2018-Aug-10 00:30N 41°11' W 008°42'0 0.0
2018-Aug-10 00:01N 41°11' W 008°42'0 0.0
2018-Aug-09 23:30N 41°11' W 008°42'0 0.0
2018-Aug-09 23:01N 41°11' W 008°42'0 0.0
2018-Aug-09 22:30N 41°11' W 008°42'0 0.0
2018-Aug-09 22:01N 41°11' W 008°42'0 0.0
2018-Aug-09 07:20N 41°11' W 008°42'1 3.0
2018-Aug-09 07:01N 41°10' W 008°42'4 2.2
2018-Aug-09 05:00N 41°06' W 008°42'510.3
2018-Aug-09 04:30N 41°11' W 008°42'0 0.9
2018-Aug-09 04:01N 41°11' W 008°42'0 0.0
2018-Aug-09 03:30N 41°11' W 008°42'0 0.0
2018-Aug-09 03:01N 41°11' W 008°42'0 0.0
2018-Aug-09 02:31N 41°11' W 008°42'0 0.0
2018-Aug-09 02:01N 41°11' W 008°42'0 0.0
2018-Aug-09 01:31N 41°11' W 008°42'0 0.0
2018-Aug-09 01:01N 41°11' W 008°42'4 7.8
2018-Aug-09 00:29N 41°08' W 008°46'3 1.3
2018-Aug-08 22:02N 41°11' W 008°45'010.5
2018-Aug-08 22:00N 41°11' W 008°45'2 0.3
2018-Aug-08 14:05N 41°11' W 008°42'0 0.0
2018-Aug-08 14:00N 41°11' W 008°42'0 0.0
2018-Aug-08 13:30N 41°11' W 008°42'0 0.1
2018-Aug-08 13:01N 41°11' W 008°42'0 0.0
2018-Aug-08 12:30N 41°11' W 008°42'0 0.0
2018-Aug-08 12:00N 41°11' W 008°42'0 0.0
2018-Aug-08 11:30N 41°11' W 008°42'0 0.0
2018-Aug-08 11:00N 41°11' W 008°42'0 0.0
2018-Aug-08 10:30N 41°11' W 008°42'0 0.0
2018-Aug-08 10:00N 41°11' W 008°42'1 1.3
2018-Aug-08 09:31N 41°10' W 008°42'6 1.3
2018-Aug-08 05:09N 41°05' W 008°43'310.3
2018-Aug-08 04:50N 41°08' W 008°42'3 8.9
2018-Aug-08 04:31N 41°11' W 008°42'0 0.0
2018-Aug-08 04:00N 41°11' W 008°42'0 0.0
2018-Aug-08 03:30N 41°11' W 008°42'0 0.0
2018-Aug-08 03:00N 41°11' W 008°42'0 0.0
2018-Aug-08 02:31N 41°11' W 008°42'0 0.0
2018-Aug-08 02:00N 41°11' W 008°42'0 0.0
2018-Aug-08 01:30N 41°11' W 008°42'0 0.0
2018-Aug-08 01:01N 41°11' W 008°42'0 0.0
2018-Aug-08 00:31N 41°11' W 008°42'0 0.0
2018-Aug-08 00:01N 41°11' W 008°42'0 0.0
2018-Aug-07 23:30N 41°11' W 008°42'0 0.0
2018-Aug-07 23:01N 41°11' W 008°42'0 0.0
2018-Aug-07 22:30N 41°11' W 008°42'0 0.0
2018-Aug-07 22:00N 41°11' W 008°42'  

Dump ship's entire track history